createdAt,value
2022-10-17T00:00:38.915Z,15.23
2022-10-17T00:01:39.007Z,15.11
2022-10-17T00:02:38.910Z,15.17
2022-10-17T00:03:38.909Z,15.19
2022-10-17T00:04:38.916Z,15.19
2022-10-17T00:05:38.917Z,15.20
2022-10-17T00:06:38.921Z,15.25
2022-10-17T00:07:38.909Z,15.13
2022-10-17T00:08:38.904Z,15.25
2022-10-17T00:09:39.154Z,15.21
2022-10-17T00:10:38.908Z,15.13
2022-10-17T00:11:38.958Z,15.21
2022-10-17T00:12:38.910Z,15.20
2022-10-17T00:13:38.909Z,15.25
2022-10-17T00:14:38.920Z,15.25
2022-10-17T00:15:38.909Z,15.25
2022-10-17T00:16:38.933Z,15.21
2022-10-17T00:17:38.927Z,15.23
2022-10-17T00:18:38.905Z,15.34
2022-10-17T00:19:38.909Z,15.36
2022-10-17T00:20:38.920Z,15.31
2022-10-17T00:21:38.911Z,15.38
2022-10-17T00:22:38.942Z,15.36
2022-10-17T00:23:38.938Z,15.35
2022-10-17T00:24:38.908Z,15.32
2022-10-17T00:25:38.919Z,15.35
2022-10-17T00:26:38.917Z,15.38
2022-10-17T00:27:38.919Z,15.34
2022-10-17T00:28:38.989Z,15.31
2022-10-17T00:29:38.933Z,15.38
2022-10-17T00:30:38.929Z,15.38
2022-10-17T00:31:38.938Z,15.38
2022-10-17T00:32:38.951Z,15.32
2022-10-17T00:33:38.937Z,15.31
2022-10-17T00:34:38.928Z,15.31
2022-10-17T00:35:38.932Z,15.32
2022-10-17T00:36:38.916Z,15.36
2022-10-17T00:37:38.917Z,15.34
2022-10-17T00:38:38.933Z,15.34
2022-10-17T00:39:38.948Z,15.35
2022-10-17T00:40:38.926Z,15.34
2022-10-17T00:41:38.928Z,15.43
2022-10-17T00:42:38.917Z,15.41
2022-10-17T00:43:38.919Z,15.43
2022-10-17T00:44:38.930Z,15.39
2022-10-17T00:45:38.936Z,15.38
2022-10-17T00:46:38.930Z,15.38
2022-10-17T00:47:38.947Z,15.38
2022-10-17T00:48:38.934Z,15.41
2022-10-17T00:49:38.927Z,15.34
2022-10-17T00:50:38.962Z,15.34
2022-10-17T00:51:38.942Z,15.44
2022-10-17T00:52:38.932Z,15.44
2022-10-17T00:53:38.927Z,15.49
2022-10-17T00:54:38.940Z,15.39
2022-10-17T00:55:38.946Z,15.47
2022-10-17T00:56:38.954Z,15.46
2022-10-17T00:57:38.925Z,15.49
2022-10-17T00:58:38.953Z,15.51
2022-10-17T00:59:38.924Z,15.54
2022-10-17T01:00:38.938Z,15.47
2022-10-17T01:01:39.034Z,15.56
2022-10-17T01:02:38.929Z,15.51
2022-10-17T01:03:38.926Z,15.57
2022-10-17T01:04:38.933Z,15.51
2022-10-17T01:05:38.933Z,15.54
2022-10-17T01:06:38.954Z,15.51
2022-10-17T01:07:38.930Z,15.47
2022-10-17T01:08:38.952Z,15.49
2022-10-17T01:09:38.933Z,15.50
2022-10-17T01:10:38.944Z,15.46
2022-10-17T01:11:38.944Z,15.51
2022-10-17T01:12:38.966Z,15.56
2022-10-17T01:13:38.959Z,15.57
2022-10-17T01:14:38.946Z,15.54
2022-10-17T01:15:38.937Z,15.46
2022-10-17T01:16:38.953Z,15.43
2022-10-17T01:17:38.960Z,15.54
2022-10-17T01:18:38.940Z,15.50
2022-10-17T01:19:38.933Z,15.49
2022-10-17T01:20:38.939Z,15.53
2022-10-17T01:21:38.944Z,15.51
2022-10-17T01:22:38.948Z,15.50
2022-10-17T01:23:38.972Z,15.56
2022-10-17T01:24:38.943Z,15.54
2022-10-17T01:25:38.948Z,15.53
2022-10-17T01:26:38.940Z,15.56
2022-10-17T01:27:38.946Z,15.59
2022-10-17T01:28:38.999Z,15.49
2022-10-17T01:29:38.967Z,15.53
2022-10-17T01:30:38.954Z,15.54
2022-10-17T01:31:38.945Z,15.56
2022-10-17T01:32:38.955Z,15.57
2022-10-17T01:33:38.945Z,15.53
2022-10-17T01:34:38.973Z,15.51
2022-10-17T01:35:38.968Z,15.50
2022-10-17T01:36:38.956Z,15.54
2022-10-17T01:37:39.016Z,15.49
2022-10-17T01:38:38.953Z,15.56
2022-10-17T01:39:39.087Z,15.57
2022-10-17T01:40:38.959Z,15.60
2022-10-17T01:41:38.947Z,15.56
2022-10-17T01:42:38.950Z,15.50
2022-10-17T01:43:38.952Z,15.51
2022-10-17T01:44:38.969Z,15.49
2022-10-17T01:45:38.966Z,15.43
2022-10-17T01:46:38.971Z,15.60
2022-10-17T01:47:38.997Z,15.57
2022-10-17T01:48:38.958Z,15.39
2022-10-17T01:49:38.957Z,15.54
2022-10-17T01:50:38.951Z,15.46
2022-10-17T01:51:39.017Z,15.41
2022-10-17T01:52:38.958Z,15.53
2022-10-17T01:53:38.962Z,15.47
2022-10-17T01:54:38.966Z,15.39
2022-10-17T01:55:38.955Z,15.51
2022-10-17T01:56:38.985Z,15.44
2022-10-17T01:57:38.969Z,15.41
2022-10-17T01:58:38.989Z,15.57
2022-10-17T01:59:38.969Z,15.53
2022-10-17T02:00:38.958Z,15.46
2022-10-17T02:01:39.029Z,15.54
2022-10-17T02:02:38.970Z,15.47
2022-10-17T02:03:38.954Z,15.47
2022-10-17T02:04:38.997Z,15.38
2022-10-17T02:05:38.968Z,15.44
2022-10-17T02:06:38.969Z,15.39
2022-10-17T02:07:38.970Z,15.43
2022-10-17T02:08:38.975Z,15.36
2022-10-17T02:09:38.972Z,15.39
2022-10-17T02:10:38.988Z,15.39
2022-10-17T02:11:38.979Z,15.34
2022-10-17T02:12:38.961Z,15.31
2022-10-17T02:13:38.977Z,15.39
2022-10-17T02:14:39.012Z,15.31
2022-10-17T02:15:38.976Z,15.35
2022-10-17T02:16:38.987Z,15.28
2022-10-17T02:17:38.967Z,15.36
2022-10-17T02:18:38.982Z,15.34
2022-10-17T02:19:38.980Z,15.41
2022-10-17T02:20:38.974Z,15.36
2022-10-17T02:21:38.992Z,15.32
2022-10-17T02:22:38.974Z,15.17
2022-10-17T02:23:38.973Z,15.27
2022-10-17T02:24:38.976Z,15.27
2022-10-17T02:25:38.982Z,15.20
2022-10-17T02:26:38.984Z,15.19
2022-10-17T02:27:38.980Z,15.27
2022-10-17T02:28:39.022Z,15.25
2022-10-17T02:29:38.979Z,15.27
2022-10-17T02:30:38.977Z,15.14
2022-10-17T02:31:38.983Z,15.14
2022-10-17T02:32:39.007Z,15.19
2022-10-17T02:33:38.968Z,15.21
2022-10-17T02:34:38.982Z,15.19
2022-10-17T02:35:38.978Z,15.17
2022-10-17T02:36:39.015Z,15.17
2022-10-17T02:37:38.977Z,15.20
2022-10-17T02:38:38.985Z,15.17
2022-10-17T02:39:38.970Z,15.14
2022-10-17T02:40:38.988Z,15.17
2022-10-17T02:41:38.986Z,15.14
2022-10-17T02:42:38.986Z,15.11
2022-10-17T02:43:38.981Z,15.16
2022-10-17T02:44:39.003Z,15.17
2022-10-17T02:45:38.974Z,15.13
2022-10-17T02:46:38.986Z,15.14
2022-10-17T02:47:38.978Z,15.07
2022-10-17T02:48:38.992Z,15.13
2022-10-17T02:49:38.975Z,15.14
2022-10-17T02:50:38.984Z,15.10
2022-10-17T02:51:38.982Z,15.16
2022-10-17T02:52:38.996Z,15.14
2022-10-17T02:53:38.986Z,15.13
2022-10-17T02:54:38.999Z,15.09
2022-10-17T02:55:38.978Z,15.16
2022-10-17T02:56:38.983Z,15.13
2022-10-17T02:57:38.987Z,15.10
2022-10-17T02:58:38.992Z,15.11
2022-10-17T02:59:38.982Z,15.13
2022-10-17T03:00:39.012Z,15.13
2022-10-17T03:01:39.037Z,15.07
2022-10-17T03:02:38.985Z,15.14
2022-10-17T03:03:38.986Z,15.13
2022-10-17T03:04:38.982Z,15.17
2022-10-17T03:05:39.006Z,15.19
2022-10-17T03:06:38.980Z,15.17
2022-10-17T03:07:38.976Z,15.16
2022-10-17T03:09:38.990Z,15.19
2022-10-17T03:10:38.979Z,15.17
2022-10-17T03:11:38.991Z,15.17
2022-10-17T03:12:38.994Z,15.17
2022-10-17T03:13:39.949Z,15.14
2022-10-17T03:14:38.993Z,15.14
2022-10-17T03:15:38.994Z,15.16
2022-10-17T03:16:38.990Z,15.23
2022-10-17T03:17:39.047Z,15.16
2022-10-17T03:18:39.000Z,15.20
2022-10-17T03:19:38.985Z,15.19
2022-10-17T03:20:38.997Z,15.27
2022-10-17T03:21:39.000Z,15.27
2022-10-17T03:22:39.015Z,15.23
2022-10-17T03:23:39.001Z,15.19
2022-10-17T03:24:38.989Z,15.19
2022-10-17T03:25:38.985Z,15.25
2022-10-17T03:26:39.045Z,15.27
2022-10-17T03:27:38.979Z,15.20
2022-10-17T03:28:39.040Z,15.25
2022-10-17T03:29:38.997Z,15.23
2022-10-17T03:30:38.981Z,15.27
2022-10-17T03:31:39.033Z,15.25
2022-10-17T03:32:38.993Z,15.27
2022-10-17T03:33:38.982Z,15.17
2022-10-17T03:34:38.987Z,15.25
2022-10-17T03:35:39.051Z,15.19
2022-10-17T03:36:38.985Z,15.20
2022-10-17T03:37:38.999Z,15.27
2022-10-17T03:38:38.985Z,15.28
2022-10-17T03:39:38.986Z,15.27
2022-10-17T03:40:38.995Z,15.27
2022-10-17T03:41:39.005Z,15.21
2022-10-17T03:42:38.993Z,15.21
2022-10-17T03:43:39.008Z,15.27
2022-10-17T03:44:39.005Z,15.27
2022-10-17T03:45:38.997Z,15.25
2022-10-17T03:46:39.004Z,15.27
2022-10-17T03:47:39.092Z,15.27
2022-10-17T03:48:39.002Z,15.29
2022-10-17T03:49:39.000Z,15.21
2022-10-17T03:50:39.007Z,15.25
2022-10-17T03:51:39.001Z,15.20
2022-10-17T03:52:38.996Z,15.21
2022-10-17T03:53:39.015Z,15.19
2022-10-17T03:54:38.984Z,15.27
2022-10-17T03:55:38.991Z,15.19
2022-10-17T03:56:39.008Z,15.27
2022-10-17T03:57:41.146Z,15.23
2022-10-17T03:58:39.002Z,15.35
2022-10-17T03:59:39.004Z,15.31
2022-10-17T04:00:38.998Z,15.32
2022-10-17T04:01:39.027Z,15.21
2022-10-17T04:02:39.011Z,15.28
2022-10-17T04:03:39.005Z,15.41
2022-10-17T04:04:39.012Z,15.34
2022-10-17T04:05:39.025Z,15.41
2022-10-17T04:06:39.028Z,15.31
2022-10-17T04:07:39.000Z,15.36
2022-10-17T04:08:39.011Z,15.41
2022-10-17T04:09:38.993Z,15.34
2022-10-17T04:10:39.022Z,15.44
2022-10-17T04:11:39.020Z,15.35
2022-10-17T04:12:39.009Z,15.38
2022-10-17T04:13:39.021Z,15.41
2022-10-17T04:14:39.009Z,15.38
2022-10-17T04:15:39.037Z,15.39
2022-10-17T04:16:38.998Z,15.34
2022-10-17T04:17:39.047Z,15.39
2022-10-17T04:18:38.999Z,15.27
2022-10-17T04:19:39.007Z,15.31
2022-10-17T04:20:39.027Z,15.34
2022-10-17T04:21:38.997Z,15.35
2022-10-17T04:22:39.051Z,15.23
2022-10-17T04:23:39.005Z,15.34
2022-10-17T04:24:39.016Z,15.23
2022-10-17T04:25:38.997Z,15.31
2022-10-17T04:26:38.995Z,15.27
2022-10-17T04:27:39.004Z,15.31
2022-10-17T04:29:39.024Z,15.19
2022-10-17T04:30:41.186Z,15.28
2022-10-17T04:31:39.001Z,15.25
2022-10-17T04:32:39.099Z,15.23
2022-10-17T04:33:39.002Z,15.28
2022-10-17T04:34:39.008Z,15.17
2022-10-17T04:35:38.998Z,15.25
2022-10-17T04:36:39.015Z,15.28
2022-10-17T04:37:39.011Z,15.16
2022-10-17T04:38:39.017Z,15.32
2022-10-17T04:39:39.003Z,15.16
2022-10-17T04:40:39.025Z,15.25
2022-10-17T04:41:39.015Z,15.25
2022-10-17T04:42:39.015Z,15.20
2022-10-17T04:43:39.029Z,15.16
2022-10-17T04:44:38.998Z,15.17
2022-10-17T04:45:39.009Z,15.16
2022-10-17T04:46:39.034Z,15.20
2022-10-17T04:47:39.017Z,15.20
2022-10-17T04:48:39.003Z,15.19
2022-10-17T04:49:39.042Z,15.17
2022-10-17T04:50:39.008Z,15.16
2022-10-17T04:51:39.023Z,15.17
2022-10-17T04:52:39.013Z,15.06
2022-10-17T04:53:39.030Z,15.17
2022-10-17T04:54:39.005Z,15.09
2022-10-17T04:55:39.039Z,15.10
2022-10-17T04:56:39.009Z,15.11
2022-10-17T04:57:39.017Z,15.07
2022-10-17T04:58:39.020Z,15.14
2022-10-17T04:59:38.996Z,15.06
2022-10-17T05:00:39.098Z,15.09
2022-10-17T05:01:39.020Z,15.03
2022-10-17T05:02:39.021Z,15.10
2022-10-17T05:03:39.017Z,15.11
2022-10-17T05:04:39.012Z,15.09
2022-10-17T05:05:39.027Z,14.94
2022-10-17T05:06:39.018Z,14.98
2022-10-17T05:07:39.012Z,15.01
2022-10-17T05:08:39.031Z,14.98
2022-10-17T05:09:39.017Z,14.95
2022-10-17T05:10:39.003Z,14.98
2022-10-17T05:11:39.017Z,14.99
2022-10-17T05:12:39.028Z,14.99
2022-10-17T05:13:39.032Z,14.99
2022-10-17T05:14:39.041Z,14.96
2022-10-17T05:15:39.017Z,14.96
2022-10-17T05:16:39.025Z,14.99
2022-10-17T05:17:39.365Z,14.92
2022-10-17T05:18:39.018Z,14.84
2022-10-17T05:19:40.592Z,14.94
2022-10-17T05:20:39.031Z,14.91
2022-10-17T05:21:39.041Z,14.95
2022-10-17T05:22:41.961Z,14.95
2022-10-17T05:23:39.282Z,14.92
2022-10-17T05:24:39.951Z,14.96
2022-10-17T05:25:40.950Z,14.92
2022-10-17T05:26:39.031Z,14.86
2022-10-17T05:27:39.027Z,14.86
2022-10-17T05:28:39.201Z,14.88
2022-10-17T05:29:39.039Z,14.84
2022-10-17T05:30:39.054Z,14.83
2022-10-17T05:31:39.004Z,14.84
2022-10-17T05:32:39.035Z,14.83
2022-10-17T05:33:39.042Z,14.81
2022-10-17T05:34:39.023Z,14.75
2022-10-17T05:35:39.030Z,14.73
2022-10-17T05:36:39.019Z,14.75
2022-10-17T05:37:39.027Z,14.73
2022-10-17T05:38:39.043Z,14.73
2022-10-17T05:39:39.009Z,14.68
2022-10-17T05:40:39.042Z,14.75
2022-10-17T05:41:39.023Z,14.65
2022-10-17T05:43:39.004Z,14.69
2022-10-17T05:44:39.049Z,14.80
2022-10-17T05:45:39.006Z,14.73
2022-10-17T05:46:39.025Z,14.77
2022-10-17T05:47:39.010Z,14.80
2022-10-17T05:48:39.040Z,14.72
2022-10-17T05:49:47.376Z,14.68
2022-10-17T05:50:39.011Z,14.75
2022-10-17T05:52:39.002Z,14.69
2022-10-17T05:53:39.017Z,14.78
2022-10-17T05:54:39.011Z,14.81
2022-10-17T05:55:39.015Z,14.75
2022-10-17T05:56:39.027Z,14.77
2022-10-17T05:57:38.999Z,14.84
2022-10-17T05:58:49.701Z,14.77
2022-10-17T05:59:39.016Z,14.86
2022-10-17T06:00:39.038Z,14.94
2022-10-17T06:01:39.089Z,14.83
2022-10-17T06:02:38.999Z,14.81
2022-10-17T06:03:39.001Z,14.95
2022-10-17T06:04:39.009Z,14.83
2022-10-17T06:05:39.010Z,14.81
2022-10-17T06:06:39.020Z,14.92
2022-10-17T06:07:39.033Z,14.98
2022-10-17T06:08:39.004Z,15.01
2022-10-17T06:09:39.068Z,14.95
2022-10-17T06:10:39.021Z,15.02
2022-10-17T06:11:39.009Z,14.96
2022-10-17T06:12:39.012Z,14.94
2022-10-17T06:13:39.005Z,14.96
2022-10-17T06:14:39.021Z,14.95
2022-10-17T06:15:39.027Z,15.06
2022-10-17T06:16:39.014Z,15.07
2022-10-17T06:17:39.026Z,15.07
2022-10-17T06:18:39.118Z,15.11
2022-10-17T06:19:39.007Z,14.98
2022-10-17T06:20:42.511Z,15.07
2022-10-17T06:21:39.022Z,15.11
2022-10-17T06:22:39.044Z,15.13
2022-10-17T06:23:39.009Z,15.16
2022-10-17T06:24:39.588Z,15.16
2022-10-17T06:25:39.024Z,15.11
2022-10-17T06:26:39.001Z,15.16
2022-10-17T06:27:39.023Z,15.21
2022-10-17T06:28:39.073Z,15.23
2022-10-17T06:29:39.969Z,15.23
2022-10-17T06:30:39.019Z,15.21
2022-10-17T06:31:39.014Z,15.23
2022-10-17T06:32:39.000Z,15.21
2022-10-17T06:33:39.014Z,15.20
2022-10-17T06:34:39.018Z,15.23
2022-10-17T06:35:39.035Z,15.34
2022-10-17T06:36:39.066Z,15.28
2022-10-17T06:37:39.317Z,15.36
2022-10-17T06:38:39.014Z,15.35
2022-10-17T06:39:39.021Z,15.38
2022-10-17T06:40:39.051Z,15.43
2022-10-17T06:41:39.005Z,15.50
2022-10-17T06:42:39.034Z,15.44
2022-10-17T06:43:39.006Z,15.56
2022-10-17T06:44:39.022Z,15.67
2022-10-17T06:45:39.023Z,15.76
2022-10-17T06:46:39.020Z,15.74
2022-10-17T06:47:39.032Z,15.80
2022-10-17T06:48:39.007Z,15.75
2022-10-17T06:49:39.019Z,15.80
2022-10-17T06:50:39.029Z,15.89
2022-10-17T06:51:39.013Z,15.84
2022-10-17T06:52:39.037Z,15.97
2022-10-17T06:53:39.019Z,16.00
2022-10-17T06:54:39.020Z,15.97
2022-10-17T06:55:39.020Z,16.08
2022-10-17T06:56:39.011Z,16.08
2022-10-17T06:57:39.017Z,16.09
2022-10-17T06:58:39.028Z,16.23
2022-10-17T06:59:39.010Z,16.15
2022-10-17T07:00:39.101Z,16.15
2022-10-17T07:01:40.738Z,16.23
2022-10-17T07:02:39.010Z,16.31
2022-10-17T07:03:39.047Z,16.38
2022-10-17T07:04:39.021Z,16.46
2022-10-17T07:05:39.041Z,16.64
2022-10-17T07:06:39.024Z,16.91
2022-10-17T07:07:43.054Z,17.15
2022-10-17T07:08:39.019Z,17.23
2022-10-17T07:09:39.026Z,17.38
2022-10-17T07:10:39.033Z,17.28
2022-10-17T07:11:39.011Z,17.58
2022-10-17T07:12:39.106Z,17.62
2022-10-17T07:13:39.446Z,17.55
2022-10-17T07:14:39.022Z,17.49
2022-10-17T07:15:39.028Z,17.66
2022-10-17T07:16:39.039Z,17.52
2022-10-17T07:17:39.012Z,17.48
2022-10-17T07:18:39.015Z,17.43
2022-10-17T07:19:39.028Z,17.51
2022-10-17T07:20:39.036Z,17.49
2022-10-17T07:21:39.457Z,17.40
2022-10-17T07:22:39.011Z,17.31
2022-10-17T07:23:39.027Z,17.28
2022-10-17T07:24:39.098Z,17.30
2022-10-17T07:25:40.257Z,17.38
2022-10-17T07:26:39.039Z,17.44
2022-10-17T07:27:39.069Z,17.54
2022-10-17T07:28:39.057Z,17.70
2022-10-17T07:29:39.026Z,17.86
2022-10-17T07:30:39.018Z,18.23
2022-10-17T07:31:39.056Z,18.27
2022-10-17T07:32:39.024Z,18.39
2022-10-17T07:33:39.072Z,18.73
2022-10-17T07:34:39.024Z,19.00
2022-10-17T07:35:39.041Z,19.18
2022-10-17T07:36:39.046Z,19.29
2022-10-17T07:37:39.070Z,19.29
2022-10-17T07:38:39.051Z,19.41
2022-10-17T07:39:39.047Z,19.54
2022-10-17T07:40:39.069Z,19.61
2022-10-17T07:41:39.075Z,19.80
2022-10-17T07:43:39.068Z,19.74
2022-10-17T07:44:39.039Z,19.92
2022-10-17T07:45:39.044Z,19.91
2022-10-17T07:46:39.191Z,20.14
2022-10-17T07:47:39.091Z,20.23
2022-10-17T07:48:39.048Z,20.28
2022-10-17T07:49:39.064Z,20.39
2022-10-17T07:50:39.074Z,20.31
2022-10-17T07:51:39.123Z,20.28
2022-10-17T07:52:39.058Z,20.17
2022-10-17T07:53:39.088Z,20.26
2022-10-17T07:54:39.601Z,20.39
2022-10-17T07:55:39.078Z,20.61
2022-10-17T07:56:39.187Z,20.47
2022-10-17T07:57:39.092Z,20.50
2022-10-17T07:58:39.068Z,20.52
2022-10-17T07:59:39.107Z,20.52
2022-10-17T08:00:39.174Z,20.69
2022-10-17T08:01:39.090Z,20.80
2022-10-17T08:02:39.094Z,21.03
2022-10-17T08:03:40.014Z,21.14
2022-10-17T08:04:39.110Z,21.29
2022-10-17T08:05:39.103Z,21.21
2022-10-17T08:06:39.112Z,21.09
2022-10-17T08:07:39.097Z,21.28
2022-10-17T08:08:39.097Z,21.32
2022-10-17T08:09:39.134Z,21.07
2022-10-17T08:10:39.144Z,21.19
2022-10-17T08:11:39.109Z,21.24
2022-10-17T08:12:39.129Z,21.37
2022-10-17T08:13:39.128Z,21.25
2022-10-17T08:14:39.144Z,21.38
2022-10-17T08:15:39.137Z,21.40
2022-10-17T08:16:39.132Z,21.71
2022-10-17T08:17:39.174Z,21.79
2022-10-17T08:18:39.139Z,21.86
2022-10-17T08:19:39.148Z,21.94
2022-10-17T08:20:39.148Z,22.03
2022-10-17T08:21:39.159Z,22.10
2022-10-17T08:22:39.159Z,22.05
2022-10-17T08:23:39.185Z,21.98
2022-10-17T08:24:39.202Z,21.82
2022-10-17T08:25:47.621Z,21.68
2022-10-17T08:26:42.364Z,21.56
2022-10-17T08:27:39.179Z,21.37
2022-10-17T08:28:39.219Z,21.46
2022-10-17T08:29:39.186Z,21.40
2022-10-17T08:32:27.236Z,21.56
2022-10-17T08:33:26.051Z,21.68
2022-10-17T08:34:26.732Z,21.84
2022-10-17T08:35:18.516Z,21.96
2022-10-17T08:36:26.070Z,21.99
2022-10-17T08:37:26.968Z,22.21
2022-10-17T08:38:27.991Z,22.20
2022-10-17T08:39:18.541Z,22.28
2022-10-17T08:40:26.806Z,22.51
2022-10-17T08:41:26.827Z,22.55
2022-10-17T08:42:26.061Z,22.65
2022-10-17T08:43:26.051Z,22.67
2022-10-17T08:44:26.903Z,22.73
2022-10-17T08:45:26.924Z,22.82
2022-10-17T08:46:26.999Z,22.90
2022-10-17T08:47:26.126Z,22.95
2022-10-17T08:48:26.075Z,23.05
2022-10-17T08:49:26.088Z,23.10
2022-10-17T08:50:27.031Z,23.17
2022-10-17T08:51:27.045Z,23.22
2022-10-17T08:52:26.101Z,23.36
2022-10-17T08:53:26.084Z,23.46
2022-10-17T08:54:26.633Z,23.54
2022-10-17T08:56:57.916Z,23.61
2022-10-17T08:57:57.942Z,23.60
2022-10-17T08:58:57.915Z,23.68
2022-10-17T08:59:57.931Z,23.66
2022-10-17T09:00:57.936Z,23.72
2022-10-17T09:01:57.922Z,23.76
2022-10-17T09:02:58.041Z,23.60
2022-10-17T09:03:57.955Z,23.57
2022-10-17T09:04:57.954Z,23.57
2022-10-17T09:05:57.969Z,23.60
2022-10-17T09:06:57.946Z,23.75
2022-10-17T09:07:57.952Z,23.88
2022-10-17T09:08:57.983Z,23.98
2022-10-17T09:09:57.965Z,24.00
2022-10-17T09:10:57.978Z,24.12
2022-10-17T09:11:57.983Z,24.10
2022-10-17T09:12:58.072Z,24.09
2022-10-17T09:13:57.995Z,24.24
2022-10-17T09:14:58.003Z,24.13
2022-10-17T09:15:58.009Z,24.25
2022-10-17T09:16:58.018Z,24.09
2022-10-17T09:17:58.013Z,24.12
2022-10-17T09:18:58.034Z,23.94
2022-10-17T09:19:58.034Z,23.90
2022-10-17T09:20:58.030Z,23.84
2022-10-17T09:21:58.055Z,23.80
2022-10-17T09:22:58.040Z,23.78
2022-10-17T09:24:09.730Z,23.73
2022-10-17T09:24:58.068Z,23.76
2022-10-17T09:25:58.081Z,23.63
2022-10-17T09:26:58.076Z,23.63
2022-10-17T09:27:58.091Z,23.54
2022-10-17T09:28:58.126Z,23.57
2022-10-17T09:29:58.119Z,23.54
2022-10-17T09:30:58.108Z,23.57
2022-10-17T09:32:58.108Z,23.54
2022-10-17T09:33:58.100Z,23.53
2022-10-17T09:34:58.112Z,23.54
2022-10-17T09:35:58.143Z,23.39
2022-10-17T09:36:58.125Z,23.35
2022-10-17T09:37:58.131Z,23.22
2022-10-17T09:38:58.152Z,23.12
2022-10-17T09:39:58.149Z,23.04
2022-10-17T09:40:58.211Z,23.02
2022-10-17T09:41:58.159Z,23.00
2022-10-17T09:42:58.166Z,22.94
2022-10-17T09:43:58.170Z,22.90
2022-10-17T09:44:58.168Z,22.92
2022-10-17T09:45:58.209Z,22.95
2022-10-17T09:46:58.202Z,23.01
2022-10-17T09:48:00.916Z,23.05
2022-10-17T09:48:58.246Z,23.04
2022-10-17T09:49:58.223Z,23.05
2022-10-17T09:51:14.871Z,23.10
2022-10-17T09:51:58.207Z,23.07
2022-10-17T09:52:58.203Z,23.09
2022-10-17T09:53:58.219Z,23.09
2022-10-17T09:54:58.224Z,23.12
2022-10-17T09:55:58.258Z,23.15
2022-10-17T09:56:58.234Z,23.10
2022-10-17T09:57:58.251Z,23.10
2022-10-17T09:58:58.240Z,23.05
2022-10-17T09:59:58.246Z,23.09
2022-10-17T10:00:58.410Z,23.09
2022-10-17T10:01:58.246Z,23.10
2022-10-17T10:02:58.256Z,23.20
2022-10-17T10:03:58.259Z,23.32
2022-10-17T10:05:06.602Z,23.22
2022-10-17T10:05:58.274Z,23.27
2022-10-17T10:06:58.285Z,23.28
2022-10-17T10:07:58.276Z,23.40
2022-10-17T10:08:58.294Z,23.39
2022-10-17T10:09:58.283Z,23.43
2022-10-17T10:10:58.305Z,23.50
2022-10-17T10:11:58.317Z,23.68
2022-10-17T10:12:58.317Z,23.78
2022-10-17T10:13:58.313Z,24.03
2022-10-17T10:14:58.347Z,24.00
2022-10-17T10:15:58.316Z,24.08
2022-10-17T10:16:58.334Z,24.10
2022-10-17T10:17:58.330Z,24.22
2022-10-17T10:18:58.338Z,24.24
2022-10-17T10:19:58.351Z,24.35
2022-10-17T10:20:58.393Z,24.37
2022-10-17T10:21:58.365Z,24.37
2022-10-17T10:22:58.850Z,24.61
2022-10-17T10:23:58.379Z,24.61
2022-10-17T10:24:58.383Z,24.68
2022-10-17T10:25:58.391Z,24.71
2022-10-17T10:26:58.389Z,24.64
2022-10-17T10:28:00.726Z,24.57
2022-10-17T10:28:58.493Z,24.68
2022-10-17T10:29:58.403Z,24.69
2022-10-17T10:30:58.399Z,24.68
2022-10-17T10:31:58.405Z,24.80
2022-10-17T10:32:58.450Z,24.96
2022-10-17T10:33:58.417Z,25.00
2022-10-17T10:34:58.436Z,25.06
2022-10-17T10:35:58.428Z,25.08
2022-10-17T10:36:58.454Z,25.15
2022-10-17T10:37:58.457Z,25.08
2022-10-17T10:39:01.306Z,25.13
2022-10-17T10:39:58.485Z,25.03
2022-10-17T10:40:58.480Z,25.08
2022-10-17T10:41:58.474Z,25.08
2022-10-17T10:43:03.981Z,25.05
2022-10-17T10:43:58.476Z,25.05
2022-10-17T10:44:58.519Z,25.05
2022-10-17T10:45:58.500Z,24.98
2022-10-17T10:46:58.512Z,25.03
2022-10-17T10:47:58.509Z,25.03
2022-10-17T10:48:58.533Z,25.13
2022-10-17T10:49:58.535Z,25.23
2022-10-17T10:50:58.542Z,25.28
2022-10-17T10:51:58.540Z,25.43
2022-10-17T10:52:58.546Z,25.55
2022-10-17T10:53:58.563Z,25.57
2022-10-17T10:54:58.563Z,25.69
2022-10-17T10:55:58.570Z,25.80
2022-10-17T10:56:58.561Z,25.87
2022-10-17T10:57:58.576Z,25.99
2022-10-17T10:58:58.597Z,26.32
2022-10-17T10:59:58.595Z,26.44
2022-10-17T11:00:58.642Z,26.63
2022-10-17T11:01:58.587Z,26.70
2022-10-17T11:02:59.306Z,26.77
2022-10-17T11:03:58.615Z,26.92
2022-10-17T11:04:58.606Z,27.14
2022-10-17T11:05:58.637Z,27.27
2022-10-17T11:06:58.639Z,27.36
2022-10-17T11:07:58.648Z,27.63
2022-10-17T11:08:58.634Z,27.82
2022-10-17T11:09:58.654Z,27.97
2022-10-17T11:10:58.673Z,28.00
2022-10-17T11:11:58.699Z,27.99
2022-10-17T11:12:58.677Z,28.07
2022-10-17T11:13:58.690Z,27.96
2022-10-17T11:14:58.715Z,28.11
2022-10-17T11:15:58.719Z,28.25
2022-10-17T11:16:58.714Z,28.49
2022-10-17T11:17:58.713Z,28.40
2022-10-17T11:18:58.729Z,28.58
2022-10-17T11:19:58.772Z,28.78
2022-10-17T11:20:58.752Z,28.78
2022-10-17T11:21:58.747Z,28.98
2022-10-17T11:22:58.755Z,29.04
2022-10-17T11:23:58.783Z,28.73
2022-10-17T11:24:58.787Z,28.48
2022-10-17T11:25:58.810Z,28.21
2022-10-17T11:26:58.832Z,27.97
2022-10-17T11:28:04.432Z,27.77
2022-10-17T11:28:58.937Z,27.55
2022-10-17T11:29:58.830Z,27.31
2022-10-17T11:30:58.847Z,27.27
2022-10-17T11:31:58.845Z,27.09
2022-10-17T11:32:58.847Z,26.92
2022-10-17T11:33:58.860Z,26.85
2022-10-17T11:34:58.860Z,26.91
2022-10-17T11:35:59.010Z,26.76
2022-10-17T11:36:58.881Z,26.65
2022-10-17T11:37:58.889Z,26.57
2022-10-17T11:38:58.895Z,26.54
2022-10-17T11:39:58.893Z,26.54
2022-10-17T11:40:58.922Z,26.70
2022-10-17T11:42:00.902Z,26.77
2022-10-17T11:42:58.929Z,27.13
2022-10-17T11:43:58.931Z,27.27
2022-10-17T11:44:58.945Z,27.40
2022-10-17T11:45:58.939Z,27.55
2022-10-17T11:46:58.962Z,27.60
2022-10-17T11:47:58.963Z,27.69
2022-10-17T11:48:58.973Z,27.96
2022-10-17T11:51:59.891Z,27.94
2022-10-17T11:52:00.823Z,27.99
2022-10-17T11:52:59.515Z,27.96
2022-10-17T11:53:58.987Z,27.88
2022-10-17T11:54:59.009Z,27.82
2022-10-17T11:55:59.005Z,27.78
2022-10-17T11:56:59.021Z,27.79
2022-10-17T11:57:59.021Z,27.93
2022-10-17T11:58:59.026Z,27.74
2022-10-17T11:59:59.025Z,27.85
2022-10-17T12:00:59.043Z,27.75
2022-10-17T12:01:59.035Z,27.78
2022-10-17T12:02:59.074Z,27.69
2022-10-17T12:03:59.128Z,27.57
2022-10-17T12:04:59.077Z,27.54
2022-10-17T12:05:59.063Z,27.65
2022-10-17T12:06:59.067Z,27.65
2022-10-17T12:07:59.097Z,27.50
2022-10-17T12:08:59.096Z,27.49
2022-10-17T12:09:59.109Z,27.43
2022-10-17T12:10:59.109Z,27.27
2022-10-17T12:11:59.097Z,27.19
2022-10-17T12:12:59.124Z,27.22
2022-10-17T12:14:01.593Z,27.10
2022-10-17T12:14:59.130Z,27.09
2022-10-17T12:15:59.138Z,27.07
2022-10-17T12:16:59.135Z,27.07
2022-10-17T12:17:59.136Z,26.94
2022-10-17T12:18:59.167Z,26.95
2022-10-17T12:19:59.151Z,26.89
2022-10-17T12:20:59.167Z,26.80
2022-10-17T12:21:59.167Z,26.69
2022-10-17T12:22:59.174Z,26.66
2022-10-17T12:23:59.206Z,26.65
2022-10-17T12:24:59.186Z,26.76
2022-10-17T12:26:01.567Z,26.66
2022-10-17T12:26:59.208Z,26.80
2022-10-17T12:27:59.225Z,26.76
2022-10-17T12:28:59.301Z,26.73
2022-10-17T12:29:59.227Z,26.84
2022-10-17T12:30:59.231Z,26.91
2022-10-17T12:31:59.237Z,26.94
2022-10-17T12:33:07.781Z,26.95
2022-10-17T12:33:59.243Z,26.97
2022-10-17T12:34:59.261Z,27.02
2022-10-17T12:35:59.251Z,27.02
2022-10-17T12:36:59.263Z,26.92
2022-10-17T12:37:59.461Z,26.95
2022-10-17T12:38:59.282Z,26.94
2022-10-17T12:39:59.296Z,26.85
2022-10-17T12:40:59.295Z,26.97
2022-10-17T12:41:59.299Z,26.92
2022-10-17T12:42:59.303Z,26.85
2022-10-17T12:43:59.311Z,26.92
2022-10-17T12:44:59.319Z,26.76
2022-10-17T12:45:59.333Z,26.84
2022-10-17T12:46:59.331Z,26.73
2022-10-17T12:47:59.329Z,26.73
2022-10-17T12:48:59.371Z,26.81
2022-10-17T12:49:59.353Z,26.77
2022-10-17T12:51:17.550Z,26.81
2022-10-17T12:51:59.367Z,26.77
2022-10-17T12:52:59.376Z,26.76
2022-10-17T12:53:59.402Z,26.72
2022-10-17T12:55:10.905Z,26.85
2022-10-17T12:55:59.386Z,26.82
2022-10-17T12:56:59.407Z,26.80
2022-10-17T12:57:59.410Z,26.76
2022-10-17T12:58:59.395Z,26.67
2022-10-17T12:59:59.416Z,26.65
2022-10-17T13:01:23.012Z,26.73
2022-10-17T13:01:59.467Z,26.66
2022-10-17T13:02:59.445Z,26.72